Terminal Aerodrome Forecast
Issued by NWS

Home | Current Version | Previous Version | Text Only | Print | Product List | Glossary On
Versions: 1 2 3 4 5 6 7 8 9 10 11 12
000
FTUS45 KGGW 301734
TAFGDV
TAF
KGDV 301734Z 3018/0118 17006KT P6SM VCTS BKN100CB
     FM302000 15006KT P6SM SCT130
     FM010900 12004KT P6SM FEW150=

USA.gov is the U.S. government's official web portal to all federal, state and local government web resources and services.